createdAt,value
2023-03-08T00:00:19.092Z,30.80
2023-03-08T00:05:21.135Z,32.43
2023-03-08T00:10:23.212Z,35.40
2023-03-08T00:15:25.211Z,40.87
2023-03-08T00:20:27.322Z,33.13
2023-03-08T00:25:29.330Z,30.87
2023-03-08T00:30:31.153Z,32.77
2023-03-08T00:35:33.119Z,37.30
2023-03-08T00:40:34.911Z,37.47
2023-03-08T00:45:38.420Z,33.10
2023-03-08T00:50:40.319Z,34.80
2023-03-08T00:55:50.424Z,35.53
2023-03-08T01:00:52.384Z,31.60
2023-03-08T01:05:56.318Z,34.27
2023-03-08T01:11:00.411Z,33.37
2023-03-08T01:16:02.549Z,35.23
2023-03-08T01:21:04.824Z,33.73
2023-03-08T01:26:11.199Z,29.80
2023-03-08T01:31:15.816Z,28.50
2023-03-08T01:36:20.322Z,27.57
2023-03-08T01:41:25.630Z,32.97
2023-03-08T01:46:32.025Z,25.37
2023-03-08T01:52:04.894Z,27.50
2023-03-08T01:57:17.802Z,25.97
2023-03-08T02:09:10.219Z,28.50
2023-03-08T02:14:12.202Z,28.50
2023-03-08T02:19:26.598Z,29.10
2023-03-08T02:24:28.810Z,30.60
2023-03-08T02:29:30.883Z,36.23
2023-03-08T02:34:32.711Z,32.97
2023-03-08T02:39:34.632Z,34.93
2023-03-08T02:44:36.563Z,35.13
2023-03-08T02:49:38.561Z,26.67
2023-03-08T02:54:40.795Z,24.57
2023-03-08T02:59:42.844Z,21.87
2023-03-08T03:04:45.480Z,17.63
2023-03-08T03:09:47.988Z,19.10
2023-03-08T03:14:50.195Z,22.63
2023-03-08T03:19:52.187Z,21.83
2023-03-08T03:24:54.133Z,19.50
2023-03-08T03:29:56.527Z,22.90
2023-03-08T03:34:59.391Z,21.70
2023-03-08T03:40:04.132Z,20.20
2023-03-08T03:45:07.018Z,22.73
2023-03-08T03:50:10.481Z,19.73
2023-03-08T03:55:21.778Z,19.37
2023-03-08T04:00:23.806Z,22.53
2023-03-08T04:05:45.685Z,23.70
2023-03-08T04:10:48.049Z,23.07
2023-03-08T04:15:50.211Z,26.00
2023-03-08T04:20:52.180Z,26.20
2023-03-08T04:25:54.203Z,24.80
2023-03-08T04:30:57.557Z,21.70
2023-03-08T04:35:59.789Z,18.47
2023-03-08T04:41:05.324Z,16.43
2023-03-08T04:46:17.918Z,19.53
2023-03-08T04:51:20.728Z,14.47
2023-03-08T04:56:23.446Z,10.47
2023-03-08T05:01:26.986Z,14.90
2023-03-08T05:06:29.709Z,12.40
2023-03-08T05:11:32.843Z,9.97
2023-03-08T05:16:35.324Z,12.73
2023-03-08T05:21:38.565Z,11.33
2023-03-08T05:26:40.551Z,10.47
2023-03-08T05:31:45.656Z,11.63
2023-03-08T05:36:49.745Z,10.63
2023-03-08T05:41:51.927Z,10.60
2023-03-08T05:47:01.112Z,10.87
2023-03-08T05:52:04.199Z,10.83
2023-03-08T05:57:06.341Z,12.80
2023-03-08T06:02:09.471Z,15.67
2023-03-08T06:07:16.078Z,15.17
2023-03-08T06:12:23.086Z,17.57
2023-03-08T06:17:28.820Z,17.73
2023-03-08T06:22:32.456Z,17.33
2023-03-08T06:27:36.013Z,19.03
2023-03-08T06:32:43.477Z,18.13
2023-03-08T06:37:46.108Z,16.20
2023-03-08T06:42:48.091Z,17.10
2023-03-08T06:47:51.775Z,16.50
2023-03-08T06:52:54.798Z,18.57
2023-03-08T06:58:06.777Z,17.23
2023-03-08T07:03:10.237Z,18.23
2023-03-08T07:08:12.112Z,17.17
2023-03-08T07:13:14.218Z,17.70
2023-03-08T07:18:16.177Z,17.40
2023-03-08T07:23:18.269Z,17.97
2023-03-08T07:28:20.327Z,19.23
2023-03-08T07:33:22.408Z,15.83
2023-03-08T07:38:24.453Z,14.20
2023-03-08T07:43:26.314Z,14.77
2023-03-08T07:48:32.739Z,15.97
2023-03-08T07:53:35.850Z,14.30
2023-03-08T07:58:38.066Z,14.87
2023-03-08T08:03:40.871Z,12.73
2023-03-08T08:08:43.157Z,15.83
2023-03-08T08:13:46.603Z,10.73
2023-03-08T08:18:48.604Z,13.30
2023-03-08T08:23:50.906Z,11.77
2023-03-08T08:28:54.239Z,10.93
2023-03-08T08:33:56.174Z,9.93
2023-03-08T08:38:58.136Z,10.90
2023-03-08T08:44:00.478Z,8.90
2023-03-08T08:49:03.055Z,10.63
2023-03-08T08:54:05.129Z,9.80
2023-03-08T08:59:06.988Z,10.37
2023-03-08T09:04:13.704Z,10.03
2023-03-08T09:09:16.581Z,13.43
2023-03-08T09:14:18.413Z,9.77
2023-03-08T09:19:20.396Z,11.73
2023-03-08T09:24:22.577Z,10.83
2023-03-08T09:29:24.608Z,10.37
2023-03-08T09:34:27.405Z,9.77
2023-03-08T09:39:29.542Z,9.97
2023-03-08T09:45:19.030Z,9.83
2023-03-08T09:50:25.757Z,11.03
2023-03-08T09:55:31.725Z,12.17
2023-03-08T10:00:37.316Z,12.03
2023-03-08T10:05:51.289Z,11.43
2023-03-08T10:11:02.154Z,13.67
2023-03-08T10:16:22.604Z,13.77
2023-03-08T10:21:26.759Z,14.93
2023-03-08T10:26:29.674Z,14.63
2023-03-08T10:31:33.935Z,13.40
2023-03-08T10:36:47.951Z,15.17
2023-03-08T10:41:57.527Z,15.20
2023-03-08T10:47:00.329Z,16.87
2023-03-08T10:52:02.489Z,19.87
2023-03-08T10:57:04.709Z,17.73
2023-03-08T11:02:12.913Z,18.67
2023-03-08T11:07:24.471Z,19.13
2023-03-08T11:12:26.772Z,20.40
2023-03-08T11:17:35.618Z,21.33
2023-03-08T11:23:00.994Z,21.43
2023-03-08T11:28:44.608Z,24.10
2023-03-08T11:33:58.762Z,25.60
2023-03-08T11:39:06.452Z,21.90
2023-03-08T11:44:28.537Z,23.00
2023-03-08T11:49:55.539Z,23.03
2023-03-08T11:54:57.391Z,21.43
2023-03-08T12:00:13.213Z,23.93
2023-03-08T12:05:28.248Z,24.30
2023-03-08T12:10:45.002Z,24.03
2023-03-08T12:15:54.101Z,29.87
2023-03-08T12:21:22.555Z,22.93
2023-03-08T12:26:37.560Z,25.67
2023-03-08T12:31:47.808Z,25.00
2023-03-08T12:36:49.817Z,26.27
2023-03-08T12:42:10.037Z,25.67
2023-03-08T12:47:11.937Z,25.17
2023-03-08T12:52:37.598Z,23.67
2023-03-08T12:57:48.348Z,27.83
2023-03-08T13:03:12.922Z,28.10
2023-03-08T13:08:14.866Z,28.27
2023-03-08T13:13:39.100Z,28.80
2023-03-08T13:18:47.195Z,25.37
2023-03-08T13:23:56.734Z,26.27
2023-03-08T13:28:59.131Z,26.07
2023-03-08T13:34:01.147Z,26.97
2023-03-08T13:39:08.146Z,27.70
2023-03-08T13:44:23.849Z,27.03
2023-03-08T13:49:30.290Z,26.37
2023-03-08T13:54:42.061Z,27.23
2023-03-08T13:59:52.932Z,26.97
2023-03-08T14:04:55.546Z,24.57
2023-03-08T14:09:58.196Z,26.50
2023-03-08T14:15:05.720Z,24.17
2023-03-08T14:20:22.815Z,26.40
2023-03-08T14:25:31.292Z,29.77
2023-03-08T14:30:33.098Z,35.00
2023-03-08T14:35:41.354Z,34.07
2023-03-08T14:40:50.211Z,34.83
2023-03-08T14:45:56.388Z,37.23
2023-03-08T14:50:59.689Z,41.50
2023-03-08T14:56:16.173Z,42.00
2023-03-08T15:01:33.967Z,43.83
2023-03-08T15:06:39.665Z,46.57
2023-03-08T15:11:42.912Z,45.67
2023-03-08T15:16:44.746Z,48.93
2023-03-08T15:21:47.604Z,49.83
2023-03-08T15:26:49.645Z,51.90
2023-03-08T15:31:51.878Z,50.83
2023-03-08T15:36:54.194Z,50.17
2023-03-08T15:41:56.056Z,49.63
2023-03-08T15:46:58.118Z,53.87
2023-03-08T15:52:00.126Z,50.23
2023-03-08T15:57:02.096Z,52.27
2023-03-08T16:02:04.163Z,56.77
2023-03-08T16:07:06.008Z,53.13
2023-03-08T16:12:08.558Z,62.73
2023-03-08T16:17:10.489Z,56.17
2023-03-08T16:22:12.877Z,62.90
2023-03-08T16:27:15.288Z,60.37
2023-03-08T16:32:18.523Z,62.33
2023-03-08T16:37:21.349Z,53.60
2023-03-08T16:42:23.454Z,52.23
2023-03-08T16:47:26.621Z,60.23
2023-03-08T16:52:28.755Z,54.87
2023-03-08T16:57:30.726Z,61.33
2023-03-08T17:02:32.700Z,60.17
2023-03-08T17:07:34.626Z,55.60
2023-03-08T17:12:36.506Z,63.37
2023-03-08T17:17:39.590Z,53.03
2023-03-08T17:22:41.610Z,51.80
2023-03-08T17:27:43.369Z,51.90
2023-03-08T17:32:45.201Z,53.40
2023-03-08T17:37:47.338Z,53.53
2023-03-08T17:42:49.220Z,47.93
2023-03-08T17:47:51.192Z,46.13
2023-03-08T17:52:53.133Z,50.07
2023-03-08T17:57:55.044Z,53.73
2023-03-08T18:02:58.173Z,53.27
2023-03-08T18:08:00.172Z,53.23
2023-03-08T18:13:02.138Z,53.13
2023-03-08T18:18:04.420Z,51.43
2023-03-08T18:23:07.171Z,50.30
2023-03-08T18:28:09.461Z,45.80
2023-03-08T18:33:11.670Z,51.60
2023-03-08T18:38:13.699Z,49.07
2023-03-08T18:43:15.607Z,57.57
2023-03-08T18:48:17.695Z,52.53
2023-03-08T18:53:19.710Z,63.43
2023-03-08T18:58:22.106Z,63.47
2023-03-08T19:03:24.442Z,56.10
2023-03-08T19:08:27.839Z,67.00
2023-03-08T19:13:29.764Z,60.50
2023-03-08T19:18:31.663Z,62.70
2023-03-08T19:23:33.626Z,66.33
2023-03-08T19:28:35.618Z,62.83
2023-03-08T19:33:37.541Z,56.30
2023-03-08T19:38:39.612Z,70.07
2023-03-08T19:43:42.414Z,65.00
2023-03-08T19:48:45.865Z,68.13
2023-03-08T19:53:47.953Z,60.07
2023-03-08T19:58:49.754Z,65.70
2023-03-08T20:03:52.339Z,62.87
2023-03-08T20:08:56.922Z,65.63
2023-03-08T20:13:59.217Z,62.53
2023-03-08T20:19:01.268Z,69.67
2023-03-08T20:24:04.081Z,66.93
2023-03-08T20:29:05.995Z,68.27
2023-03-08T20:34:08.022Z,70.73
2023-03-08T20:39:10.362Z,59.20
2023-03-08T20:44:12.403Z,66.17
2023-03-08T20:49:16.642Z,64.17
2023-03-08T20:54:18.971Z,65.57
2023-03-08T20:59:24.203Z,68.20
2023-03-08T21:04:26.722Z,70.27
2023-03-08T21:09:28.756Z,71.17
2023-03-08T21:14:33.405Z,71.83
2023-03-08T21:19:35.479Z,73.93
2023-03-08T21:24:37.331Z,72.37
2023-03-08T21:29:39.495Z,60.83
2023-03-08T21:34:41.509Z,77.00
2023-03-08T21:39:43.419Z,78.47
2023-03-08T21:44:45.345Z,70.73
2023-03-08T21:49:47.357Z,71.97
2023-03-08T21:54:49.544Z,68.07
2023-03-08T21:59:51.758Z,73.87
2023-03-08T22:04:54.008Z,71.60
2023-03-08T22:09:55.893Z,65.57
2023-03-08T22:14:57.941Z,60.47
2023-03-08T22:20:00.061Z,74.33
2023-03-08T22:25:01.953Z,55.07
2023-03-08T22:30:10.774Z,59.80
2023-03-08T22:35:13.069Z,50.03
2023-03-08T22:40:15.275Z,54.90
2023-03-08T22:45:17.243Z,50.83
2023-03-08T22:50:19.252Z,50.00
2023-03-08T22:55:21.211Z,55.47
2023-03-08T23:00:23.206Z,47.33
2023-03-08T23:05:25.155Z,48.53
2023-03-08T23:10:27.277Z,48.20
2023-03-08T23:15:31.095Z,52.13
2023-03-08T23:20:33.695Z,49.37
2023-03-08T23:25:40.262Z,47.70
2023-03-08T23:30:42.531Z,47.23
2023-03-08T23:35:48.620Z,49.13
2023-03-08T23:40:50.509Z,52.97
2023-03-08T23:45:52.545Z,53.90
2023-03-08T23:50:54.444Z,53.47
2023-03-08T23:55:56.412Z,55.03
